Reese AFB, Texas
Current Conditions -  °F | °C
As of 10:53 AM on Sunday 23 Nov 2014 (Local Time) from KLBB Reporting Station
Few Clouds Few Clouds  
Wind Chill: 64°   Ceiling: Unl
Heat Index: 64°   Visibility: 7mi
Dew Point: 22°   Wind: 36mph
Humidity: 20%   Direction: 290°WNW
Pressure: 29.59"   Gusts: 49mph
Location:  33.59°N, 102.03°W
Report Text: KLBB 231653Z 29031G43KT 7SM FEW110 18/M06 A2959 RMK AO2 PK WND 29043/1651 SLP993 BLDU ALQDS T01781056
Loading
Personal Weather Stations






























Interactive Weather Map New forecast layout! Learn more

10-Day Weather Forecast

Advertisements
Track Severe Weather on mobile